sensor_id;sensor_type;location;lat;lon;timestamp;temperature;humidity
12408;DHT22;6268;48.188;17.134;2023-01-28T00:01:43;1.00;99.90
12408;DHT22;6268;48.188;17.134;2023-01-28T00:04:13;1.00;99.90
12408;DHT22;6268;48.188;17.134;2023-01-28T00:06:42;1.00;99.90
12408;DHT22;6268;48.188;17.134;2023-01-28T00:09:11;1.10;99.90
12408;DHT22;6268;48.188;17.134;2023-01-28T00:11:40;1.00;99.90
12408;DHT22;6268;48.188;17.134;2023-01-28T00:14:10;1.00;99.90
12408;DHT22;6268;48.188;17.134;2023-01-28T00:16:39;1.00;99.90
12408;DHT22;6268;48.188;17.134;2023-01-28T00:19:08;1.00;99.90
12408;DHT22;6268;48.188;17.134;2023-01-28T00:21:39;1.00;99.90
12408;DHT22;6268;48.188;17.134;2023-01-28T00:24:08;1.00;99.90
12408;DHT22;6268;48.188;17.134;2023-01-28T00:26:37;1.00;99.90
12408;DHT22;6268;48.188;17.134;2023-01-28T00:29:06;1.00;99.90
12408;DHT22;6268;48.188;17.134;2023-01-28T00:31:34;0.90;99.90
12408;DHT22;6268;48.188;17.134;2023-01-28T00:34:03;0.90;99.90
12408;DHT22;6268;48.188;17.134;2023-01-28T00:36:32;0.90;99.90
12408;DHT22;6268;48.188;17.134;2023-01-28T00:39:10;0.90;99.90
12408;DHT22;6268;48.188;17.134;2023-01-28T00:41:41;0.90;99.90
12408;DHT22;6268;48.188;17.134;2023-01-28T00:44:10;0.90;99.90
12408;DHT22;6268;48.188;17.134;2023-01-28T00:46:39;0.90;99.90
12408;DHT22;6268;48.188;17.134;2023-01-28T00:49:09;0.90;99.90
12408;DHT22;6268;48.188;17.134;2023-01-28T00:51:37;0.90;99.90
12408;DHT22;6268;48.188;17.134;2023-01-28T00:54:09;0.90;99.90
12408;DHT22;6268;48.188;17.134;2023-01-28T00:56:39;0.90;99.90
12408;DHT22;6268;48.188;17.134;2023-01-28T00:59:08;0.90;99.90
12408;DHT22;6268;48.188;17.134;2023-01-28T01:01:37;0.90;99.90
12408;DHT22;6268;48.188;17.134;2023-01-28T01:04:06;0.80;99.90
12408;DHT22;6268;48.188;17.134;2023-01-28T01:06:36;0.90;99.90
12408;DHT22;6268;48.188;17.134;2023-01-28T01:09:10;0.90;99.90
12408;DHT22;6268;48.188;17.134;2023-01-28T01:11:40;0.90;99.90
12408;DHT22;6268;48.188;17.134;2023-01-28T01:14:09;0.90;99.90
12408;DHT22;6268;48.188;17.134;2023-01-28T01:16:38;0.90;99.90
12408;DHT22;6268;48.188;17.134;2023-01-28T01:19:07;0.90;99.90
12408;DHT22;6268;48.188;17.134;2023-01-28T01:21:36;0.90;99.90
12408;DHT22;6268;48.188;17.134;2023-01-28T01:24:05;0.90;99.90
12408;DHT22;6268;48.188;17.134;2023-01-28T01:26:36;0.90;99.90
12408;DHT22;6268;48.188;17.134;2023-01-28T01:29:05;0.90;99.90
12408;DHT22;6268;48.188;17.134;2023-01-28T01:31:35;0.80;99.90
12408;DHT22;6268;48.188;17.134;2023-01-28T01:34:04;0.80;99.90
12408;DHT22;6268;48.188;17.134;2023-01-28T01:36:33;0.90;99.90
12408;DHT22;6268;48.188;17.134;2023-01-28T01:39:02;0.90;99.90
12408;DHT22;6268;48.188;17.134;2023-01-28T01:41:32;0.90;99.90
12408;DHT22;6268;48.188;17.134;2023-01-28T01:44:03;0.90;99.90
12408;DHT22;6268;48.188;17.134;2023-01-28T01:46:36;0.90;99.90
12408;DHT22;6268;48.188;17.134;2023-01-28T01:49:14;0.80;99.90
12408;DHT22;6268;48.188;17.134;2023-01-28T01:51:50;0.80;99.90
12408;DHT22;6268;48.188;17.134;2023-01-28T01:54:24;0.80;99.90
12408;DHT22;6268;48.188;17.134;2023-01-28T01:56:57;0.80;99.90
12408;DHT22;6268;48.188;17.134;2023-01-28T01:59:30;0.80;99.90
12408;DHT22;6268;48.188;17.134;2023-01-28T02:02:02;0.90;99.90
12408;DHT22;6268;48.188;17.134;2023-01-28T02:04:37;0.90;99.90
12408;DHT22;6268;48.188;17.134;2023-01-28T02:07:08;0.90;99.90
12408;DHT22;6268;48.188;17.134;2023-01-28T02:09:39;0.90;99.90
12408;DHT22;6268;48.188;17.134;2023-01-28T02:12:12;0.90;99.90
12408;DHT22;6268;48.188;17.134;2023-01-28T02:14:45;0.90;99.90
12408;DHT22;6268;48.188;17.134;2023-01-28T02:17:18;0.80;99.90
12408;DHT22;6268;48.188;17.134;2023-01-28T02:19:52;0.80;99.90
12408;DHT22;6268;48.188;17.134;2023-01-28T02:22:55;0.70;99.90
12408;DHT22;6268;48.188;17.134;2023-01-28T02:29:13;0.80;99.90
12408;DHT22;6268;48.188;17.134;2023-01-28T02:31:51;0.70;99.90
12408;DHT22;6268;48.188;17.134;2023-01-28T02:34:28;0.70;99.90
12408;DHT22;6268;48.188;17.134;2023-01-28T02:37:08;0.70;99.90
12408;DHT22;6268;48.188;17.134;2023-01-28T02:39:44;0.70;99.90
12408;DHT22;6268;48.188;17.134;2023-01-28T02:42:20;0.70;99.90
12408;DHT22;6268;48.188;17.134;2023-01-28T02:44:53;0.70;99.90
12408;DHT22;6268;48.188;17.134;2023-01-28T02:47:22;0.70;99.90
12408;DHT22;6268;48.188;17.134;2023-01-28T02:50:11;0.70;99.90
12408;DHT22;6268;48.188;17.134;2023-01-28T02:52:50;0.70;99.90
12408;DHT22;6268;48.188;17.134;2023-01-28T02:55:48;0.70;99.90
12408;DHT22;6268;48.188;17.134;2023-01-28T02:58:28;0.70;99.90
12408;DHT22;6268;48.188;17.134;2023-01-28T03:01:13;0.70;99.90
12408;DHT22;6268;48.188;17.134;2023-01-28T03:03:57;0.70;99.90
12408;DHT22;6268;48.188;17.134;2023-01-28T03:06:32;0.70;99.90
12408;DHT22;6268;48.188;17.134;2023-01-28T03:09:06;0.70;99.90
12408;DHT22;6268;48.188;17.134;2023-01-28T03:11:53;0.70;99.90
12408;DHT22;6268;48.188;17.134;2023-01-28T03:14:42;0.70;99.90
12408;DHT22;6268;48.188;17.134;2023-01-28T03:17:41;0.60;99.90
12408;DHT22;6268;48.188;17.134;2023-01-28T03:20:36;0.70;99.90
12408;DHT22;6268;48.188;17.134;2023-01-28T03:23:29;0.60;99.90
12408;DHT22;6268;48.188;17.134;2023-01-28T03:26:23;0.60;99.90
12408;DHT22;6268;48.188;17.134;2023-01-28T03:29:14;0.50;99.90
12408;DHT22;6268;48.188;17.134;2023-01-28T03:32:03;0.50;99.90
12408;DHT22;6268;48.188;17.134;2023-01-28T03:34:52;0.50;99.90
12408;DHT22;6268;48.188;17.134;2023-01-28T03:37:39;0.50;99.90
12408;DHT22;6268;48.188;17.134;2023-01-28T03:40:09;0.40;99.90
12408;DHT22;6268;48.188;17.134;2023-01-28T03:42:39;0.40;99.90
12408;DHT22;6268;48.188;17.134;2023-01-28T03:45:08;0.40;99.90
12408;DHT22;6268;48.188;17.134;2023-01-28T03:47:38;0.40;99.90
12408;DHT22;6268;48.188;17.134;2023-01-28T03:50:10;0.30;99.90
12408;DHT22;6268;48.188;17.134;2023-01-28T03:52:39;0.40;99.90
12408;DHT22;6268;48.188;17.134;2023-01-28T03:55:08;0.40;99.90
12408;DHT22;6268;48.188;17.134;2023-01-28T03:57:41;0.40;99.90
12408;DHT22;6268;48.188;17.134;2023-01-28T04:00:12;0.40;99.90
12408;DHT22;6268;48.188;17.134;2023-01-28T04:02:44;0.40;99.90
12408;DHT22;6268;48.188;17.134;2023-01-28T04:05:14;0.40;99.90
12408;DHT22;6268;48.188;17.134;2023-01-28T04:07:45;0.40;99.90
12408;DHT22;6268;48.188;17.134;2023-01-28T04:10:17;0.50;99.90
12408;DHT22;6268;48.188;17.134;2023-01-28T04:12:47;0.40;99.90
12408;DHT22;6268;48.188;17.134;2023-01-28T04:15:17;0.40;99.90
12408;DHT22;6268;48.188;17.134;2023-01-28T04:17:46;0.40;99.90
12408;DHT22;6268;48.188;17.134;2023-01-28T04:20:17;0.40;99.90
12408;DHT22;6268;48.188;17.134;2023-01-28T04:22:46;0.40;99.90
12408;DHT22;6268;48.188;17.134;2023-01-28T04:25:15;0.30;99.90
12408;DHT22;6268;48.188;17.134;2023-01-28T04:27:44;0.30;99.90
12408;DHT22;6268;48.188;17.134;2023-01-28T04:30:13;0.40;99.90
12408;DHT22;6268;48.188;17.134;2023-01-28T04:32:42;0.40;99.90
12408;DHT22;6268;48.188;17.134;2023-01-28T04:35:11;0.40;99.90
12408;DHT22;6268;48.188;17.134;2023-01-28T04:37:41;0.40;99.90
12408;DHT22;6268;48.188;17.134;2023-01-28T04:40:11;0.30;99.90
12408;DHT22;6268;48.188;17.134;2023-01-28T04:42:40;0.30;99.90
12408;DHT22;6268;48.188;17.134;2023-01-28T04:45:10;0.30;99.90
12408;DHT22;6268;48.188;17.134;2023-01-28T04:47:41;0.30;99.90
12408;DHT22;6268;48.188;17.134;2023-01-28T04:50:09;0.30;99.90
12408;DHT22;6268;48.188;17.134;2023-01-28T04:52:38;0.30;99.90
12408;DHT22;6268;48.188;17.134;2023-01-28T04:55:09;0.30;99.90
12408;DHT22;6268;48.188;17.134;2023-01-28T04:57:39;0.30;99.90
12408;DHT22;6268;48.188;17.134;2023-01-28T05:00:09;0.30;99.90
12408;DHT22;6268;48.188;17.134;2023-01-28T05:02:38;0.20;99.90
12408;DHT22;6268;48.188;17.134;2023-01-28T05:05:07;0.30;99.90
12408;DHT22;6268;48.188;17.134;2023-01-28T05:07:36;0.20;99.90
12408;DHT22;6268;48.188;17.134;2023-01-28T05:10:08;0.20;99.90
12408;DHT22;6268;48.188;17.134;2023-01-28T05:12:37;0.20;99.90
12408;DHT22;6268;48.188;17.134;2023-01-28T05:15:07;0.20;99.90
12408;DHT22;6268;48.188;17.134;2023-01-28T05:17:36;0.30;99.90
12408;DHT22;6268;48.188;17.134;2023-01-28T05:20:06;0.30;99.90
12408;DHT22;6268;48.188;17.134;2023-01-28T05:22:36;0.30;99.90
12408;DHT22;6268;48.188;17.134;2023-01-28T05:25:08;0.30;99.90
12408;DHT22;6268;48.188;17.134;2023-01-28T05:27:37;0.30;99.90
12408;DHT22;6268;48.188;17.134;2023-01-28T05:30:07;0.30;99.90
12408;DHT22;6268;48.188;17.134;2023-01-28T05:32:36;0.20;99.90
12408;DHT22;6268;48.188;17.134;2023-01-28T05:35:06;0.30;99.90
12408;DHT22;6268;48.188;17.134;2023-01-28T05:37:35;0.20;99.90
12408;DHT22;6268;48.188;17.134;2023-01-28T05:40:07;0.20;99.90
12408;DHT22;6268;48.188;17.134;2023-01-28T05:42:37;0.30;99.90
12408;DHT22;6268;48.188;17.134;2023-01-28T05:45:06;0.30;99.90
12408;DHT22;6268;48.188;17.134;2023-01-28T05:47:36;0.30;99.90
12408;DHT22;6268;48.188;17.134;2023-01-28T05:50:06;0.30;99.90
12408;DHT22;6268;48.188;17.134;2023-01-28T05:52:36;0.30;99.90
12408;DHT22;6268;48.188;17.134;2023-01-28T05:55:07;0.30;99.90
12408;DHT22;6268;48.188;17.134;2023-01-28T05:57:37;0.30;99.90
12408;DHT22;6268;48.188;17.134;2023-01-28T06:00:06;0.30;99.90
12408;DHT22;6268;48.188;17.134;2023-01-28T06:02:36;0.30;99.90
12408;DHT22;6268;48.188;17.134;2023-01-28T06:05:05;0.30;99.90
12408;DHT22;6268;48.188;17.134;2023-01-28T06:07:35;0.30;99.90
12408;DHT22;6268;48.188;17.134;2023-01-28T06:10:05;0.30;99.90
12408;DHT22;6268;48.188;17.134;2023-01-28T06:12:36;0.30;99.90
12408;DHT22;6268;48.188;17.134;2023-01-28T06:15:06;0.30;99.90
12408;DHT22;6268;48.188;17.134;2023-01-28T06:17:35;0.30;99.90
12408;DHT22;6268;48.188;17.134;2023-01-28T06:20:05;0.30;99.90
12408;DHT22;6268;48.188;17.134;2023-01-28T06:22:35;0.30;99.90
12408;DHT22;6268;48.188;17.134;2023-01-28T06:25:04;0.30;99.90
12408;DHT22;6268;48.188;17.134;2023-01-28T06:27:35;0.30;99.90
12408;DHT22;6268;48.188;17.134;2023-01-28T06:30:05;0.30;99.90
12408;DHT22;6268;48.188;17.134;2023-01-28T06:32:35;0.30;99.90
12408;DHT22;6268;48.188;17.134;2023-01-28T06:35:04;0.30;99.90
12408;DHT22;6268;48.188;17.134;2023-01-28T06:37:34;0.30;99.90
12408;DHT22;6268;48.188;17.134;2023-01-28T06:40:03;0.30;99.90
12408;DHT22;6268;48.188;17.134;2023-01-28T06:42:34;0.30;99.90
12408;DHT22;6268;48.188;17.134;2023-01-28T06:45:03;0.40;99.90
12408;DHT22;6268;48.188;17.134;2023-01-28T06:47:32;0.40;99.90
12408;DHT22;6268;48.188;17.134;2023-01-28T06:50:01;0.40;99.90
12408;DHT22;6268;48.188;17.134;2023-01-28T06:52:30;0.40;99.90
12408;DHT22;6268;48.188;17.134;2023-01-28T06:54:59;0.40;99.90
12408;DHT22;6268;48.188;17.134;2023-01-28T06:57:28;0.40;99.90
12408;DHT22;6268;48.188;17.134;2023-01-28T06:59:58;0.40;99.90
12408;DHT22;6268;48.188;17.134;2023-01-28T07:02:28;0.40;99.90
12408;DHT22;6268;48.188;17.134;2023-01-28T07:04:56;0.40;99.90
12408;DHT22;6268;48.188;17.134;2023-01-28T07:07:25;0.50;99.90
12408;DHT22;6268;48.188;17.134;2023-01-28T07:09:54;0.50;99.90
12408;DHT22;6268;48.188;17.134;2023-01-28T07:12:23;0.50;99.90
12408;DHT22;6268;48.188;17.134;2023-01-28T07:14:52;0.50;99.90
12408;DHT22;6268;48.188;17.134;2023-01-28T07:17:22;0.50;99.90
12408;DHT22;6268;48.188;17.134;2023-01-28T07:19:51;0.60;99.90
12408;DHT22;6268;48.188;17.134;2023-01-28T07:22:20;0.60;99.90
12408;DHT22;6268;48.188;17.134;2023-01-28T07:24:49;0.60;99.90
12408;DHT22;6268;48.188;17.134;2023-01-28T07:27:18;0.60;99.90
12408;DHT22;6268;48.188;17.134;2023-01-28T07:29:47;0.60;99.90
12408;DHT22;6268;48.188;17.134;2023-01-28T07:32:15;0.60;99.90
12408;DHT22;6268;48.188;17.134;2023-01-28T07:34:46;0.60;99.90
12408;DHT22;6268;48.188;17.134;2023-01-28T07:37:15;0.70;99.90
12408;DHT22;6268;48.188;17.134;2023-01-28T07:39:43;0.60;99.90
12408;DHT22;6268;48.188;17.134;2023-01-28T07:42:12;0.70;99.90
12408;DHT22;6268;48.188;17.134;2023-01-28T07:44:41;0.70;99.90
12408;DHT22;6268;48.188;17.134;2023-01-28T07:47:10;0.70;99.90
12408;DHT22;6268;48.188;17.134;2023-01-28T07:49:39;0.70;99.90
12408;DHT22;6268;48.188;17.134;2023-01-28T07:52:09;0.90;99.90
12408;DHT22;6268;48.188;17.134;2023-01-28T07:54:38;1.00;99.90
12408;DHT22;6268;48.188;17.134;2023-01-28T07:57:08;1.10;99.90
12408;DHT22;6268;48.188;17.134;2023-01-28T07:59:37;1.10;99.90
12408;DHT22;6268;48.188;17.134;2023-01-28T08:02:08;1.20;99.90
12408;DHT22;6268;48.188;17.134;2023-01-28T08:04:39;1.30;99.90
12408;DHT22;6268;48.188;17.134;2023-01-28T08:07:09;1.30;99.90
12408;DHT22;6268;48.188;17.134;2023-01-28T08:09:38;1.40;99.90
12408;DHT22;6268;48.188;17.134;2023-01-28T08:12:07;1.40;99.90
12408;DHT22;6268;48.188;17.134;2023-01-28T08:14:36;1.40;99.90
12408;DHT22;6268;48.188;17.134;2023-01-28T08:17:05;1.30;99.90
12408;DHT22;6268;48.188;17.134;2023-01-28T08:19:33;1.40;99.90
12408;DHT22;6268;48.188;17.134;2023-01-28T08:22:02;1.30;99.90
12408;DHT22;6268;48.188;17.134;2023-01-28T08:24:32;1.30;99.90
12408;DHT22;6268;48.188;17.134;2023-01-28T08:27:01;1.30;99.90
12408;DHT22;6268;48.188;17.134;2023-01-28T08:29:31;1.30;99.90
12408;DHT22;6268;48.188;17.134;2023-01-28T08:32:00;1.30;99.90
12408;DHT22;6268;48.188;17.134;2023-01-28T08:34:29;1.40;99.90
12408;DHT22;6268;48.188;17.134;2023-01-28T08:36:58;1.40;99.90
12408;DHT22;6268;48.188;17.134;2023-01-28T08:39:27;1.40;99.90
12408;DHT22;6268;48.188;17.134;2023-01-28T08:41:57;1.40;99.90
12408;DHT22;6268;48.188;17.134;2023-01-28T08:44:26;1.50;99.90
12408;DHT22;6268;48.188;17.134;2023-01-28T08:46:55;1.50;99.90
12408;DHT22;6268;48.188;17.134;2023-01-28T08:49:24;1.50;99.90
12408;DHT22;6268;48.188;17.134;2023-01-28T08:51:52;1.50;99.90
12408;DHT22;6268;48.188;17.134;2023-01-28T08:54:22;1.50;99.90
12408;DHT22;6268;48.188;17.134;2023-01-28T08:56:51;1.50;99.90
12408;DHT22;6268;48.188;17.134;2023-01-28T08:59:21;1.40;99.90
12408;DHT22;6268;48.188;17.134;2023-01-28T09:01:50;1.50;99.90
12408;DHT22;6268;48.188;17.134;2023-01-28T09:04:19;1.60;99.90
12408;DHT22;6268;48.188;17.134;2023-01-28T09:06:48;1.60;99.90
12408;DHT22;6268;48.188;17.134;2023-01-28T09:09:17;1.70;99.90
12408;DHT22;6268;48.188;17.134;2023-01-28T09:11:46;1.70;99.90
12408;DHT22;6268;48.188;17.134;2023-01-28T09:14:14;1.70;99.90
12408;DHT22;6268;48.188;17.134;2023-01-28T09:16:45;1.60;99.90
12408;DHT22;6268;48.188;17.134;2023-01-28T09:19:14;1.60;99.90
12408;DHT22;6268;48.188;17.134;2023-01-28T09:21:43;1.60;99.90
12408;DHT22;6268;48.188;17.134;2023-01-28T09:24:11;1.70;99.90
12408;DHT22;6268;48.188;17.134;2023-01-28T09:26:40;1.60;99.90
12408;DHT22;6268;48.188;17.134;2023-01-28T09:29:10;1.60;99.90
12408;DHT22;6268;48.188;17.134;2023-01-28T09:31:39;1.70;99.90
12408;DHT22;6268;48.188;17.134;2023-01-28T09:34:10;1.70;99.90
12408;DHT22;6268;48.188;17.134;2023-01-28T09:36:39;1.60;99.90
12408;DHT22;6268;48.188;17.134;2023-01-28T09:39:08;1.60;99.90
12408;DHT22;6268;48.188;17.134;2023-01-28T09:41:46;1.60;99.90
12408;DHT22;6268;48.188;17.134;2023-01-28T09:44:32;1.60;99.90
12408;DHT22;6268;48.188;17.134;2023-01-28T09:47:20;1.60;99.90
12408;DHT22;6268;48.188;17.134;2023-01-28T09:49:58;1.60;99.90
12408;DHT22;6268;48.188;17.134;2023-01-28T09:52:33;1.60;99.90
12408;DHT22;6268;48.188;17.134;2023-01-28T09:55:14;1.60;99.90
12408;DHT22;6268;48.188;17.134;2023-01-28T09:57:50;1.60;99.90
12408;DHT22;6268;48.188;17.134;2023-01-28T10:00:25;1.60;99.90
12408;DHT22;6268;48.188;17.134;2023-01-28T10:03:07;1.60;99.90
12408;DHT22;6268;48.188;17.134;2023-01-28T10:05:57;1.70;99.90
12408;DHT22;6268;48.188;17.134;2023-01-28T10:08:43;1.70;99.90
12408;DHT22;6268;48.188;17.134;2023-01-28T10:11:40;1.80;99.90
12408;DHT22;6268;48.188;17.134;2023-01-28T10:14:24;1.80;99.90
12408;DHT22;6268;48.188;17.134;2023-01-28T10:17:06;1.70;99.90
12408;DHT22;6268;48.188;17.134;2023-01-28T10:19:43;1.80;99.90
12408;DHT22;6268;48.188;17.134;2023-01-28T10:22:21;1.80;99.90
12408;DHT22;6268;48.188;17.134;2023-01-28T10:24:55;1.80;99.90
12408;DHT22;6268;48.188;17.134;2023-01-28T10:27:29;1.80;99.90
12408;DHT22;6268;48.188;17.134;2023-01-28T10:29:59;1.70;99.90
12408;DHT22;6268;48.188;17.134;2023-01-28T10:32:48;1.70;99.90
12408;DHT22;6268;48.188;17.134;2023-01-28T10:35:20;1.70;99.90
12408;DHT22;6268;48.188;17.134;2023-01-28T10:37:56;1.70;99.90
12408;DHT22;6268;48.188;17.134;2023-01-28T10:40:28;1.80;99.90
12408;DHT22;6268;48.188;17.134;2023-01-28T10:42:57;1.80;99.90
12408;DHT22;6268;48.188;17.134;2023-01-28T10:45:28;1.80;99.90
12408;DHT22;6268;48.188;17.134;2023-01-28T10:48:06;1.80;99.90
12408;DHT22;6268;48.188;17.134;2023-01-28T10:50:49;1.80;99.90
12408;DHT22;6268;48.188;17.134;2023-01-28T10:53:33;1.80;99.90
12408;DHT22;6268;48.188;17.134;2023-01-28T10:56:06;1.90;99.90
12408;DHT22;6268;48.188;17.134;2023-01-28T10:58:49;1.90;99.90
12408;DHT22;6268;48.188;17.134;2023-01-28T11:01:25;2.00;99.90
12408;DHT22;6268;48.188;17.134;2023-01-28T11:04:05;2.00;99.90
12408;DHT22;6268;48.188;17.134;2023-01-28T11:06:55;2.00;99.90
12408;DHT22;6268;48.188;17.134;2023-01-28T11:09:29;2.00;99.90
12408;DHT22;6268;48.188;17.134;2023-01-28T11:12:10;2.00;99.90
12408;DHT22;6268;48.188;17.134;2023-01-28T11:14:49;2.00;99.90
12408;DHT22;6268;48.188;17.134;2023-01-28T11:17:21;2.10;99.90
12408;DHT22;6268;48.188;17.134;2023-01-28T11:19:52;2.10;99.90
12408;DHT22;6268;48.188;17.134;2023-01-28T11:22:30;2.20;99.90
12408;DHT22;6268;48.188;17.134;2023-01-28T11:25:06;2.30;99.90
12408;DHT22;6268;48.188;17.134;2023-01-28T11:27:46;2.30;99.90
12408;DHT22;6268;48.188;17.134;2023-01-28T11:30:22;2.20;99.90
12408;DHT22;6268;48.188;17.134;2023-01-28T11:32:59;2.20;99.90
12408;DHT22;6268;48.188;17.134;2023-01-28T11:35:32;2.20;99.90
12408;DHT22;6268;48.188;17.134;2023-01-28T11:38:01;2.20;99.90
12408;DHT22;6268;48.188;17.134;2023-01-28T11:40:31;2.20;99.90
12408;DHT22;6268;48.188;17.134;2023-01-28T11:43:00;2.20;99.90
12408;DHT22;6268;48.188;17.134;2023-01-28T11:45:37;2.20;99.90
12408;DHT22;6268;48.188;17.134;2023-01-28T11:48:20;2.20;99.90
12408;DHT22;6268;48.188;17.134;2023-01-28T11:51:03;2.30;99.90
12408;DHT22;6268;48.188;17.134;2023-01-28T11:53:56;2.30;99.90
12408;DHT22;6268;48.188;17.134;2023-01-28T11:56:52;2.30;99.90
12408;DHT22;6268;48.188;17.134;2023-01-28T11:59:49;2.30;99.90
12408;DHT22;6268;48.188;17.134;2023-01-28T12:02:58;2.30;99.90
12408;DHT22;6268;48.188;17.134;2023-01-28T12:05:47;2.30;99.90
12408;DHT22;6268;48.188;17.134;2023-01-28T12:08:21;2.30;99.90
12408;DHT22;6268;48.188;17.134;2023-01-28T12:11:08;2.20;99.90
12408;DHT22;6268;48.188;17.134;2023-01-28T12:14:17;2.30;99.90
12408;DHT22;6268;48.188;17.134;2023-01-28T12:17:04;2.20;99.90
12408;DHT22;6268;48.188;17.134;2023-01-28T12:19:56;2.20;99.90
12408;DHT22;6268;48.188;17.134;2023-01-28T12:22:58;2.20;99.90
12408;DHT22;6268;48.188;17.134;2023-01-28T12:26:01;2.20;99.90
12408;DHT22;6268;48.188;17.134;2023-01-28T12:28:51;2.20;99.90
12408;DHT22;6268;48.188;17.134;2023-01-28T12:31:48;2.10;99.90
12408;DHT22;6268;48.188;17.134;2023-01-28T12:34:51;2.10;99.90
12408;DHT22;6268;48.188;17.134;2023-01-28T12:37:44;2.10;99.90
12408;DHT22;6268;48.188;17.134;2023-01-28T12:40:53;2.10;99.90
12408;DHT22;6268;48.188;17.134;2023-01-28T12:43:40;2.10;99.90
12408;DHT22;6268;48.188;17.134;2023-01-28T12:46:22;2.10;99.90
12408;DHT22;6268;48.188;17.134;2023-01-28T12:49:02;2.10;99.90
12408;DHT22;6268;48.188;17.134;2023-01-28T12:51:46;2.10;99.90
12408;DHT22;6268;48.188;17.134;2023-01-28T12:54:29;2.10;99.90
12408;DHT22;6268;48.188;17.134;2023-01-28T12:57:03;2.10;99.90
12408;DHT22;6268;48.188;17.134;2023-01-28T12:59:38;2.10;99.90
12408;DHT22;6268;48.188;17.134;2023-01-28T13:02:21;2.00;99.90
12408;DHT22;6268;48.188;17.134;2023-01-28T13:05:01;2.00;99.90
12408;DHT22;6268;48.188;17.134;2023-01-28T13:07:39;2.00;99.90
12408;DHT22;6268;48.188;17.134;2023-01-28T13:10:18;2.10;99.90
12408;DHT22;6268;48.188;17.134;2023-01-28T13:12:53;2.10;99.90
12408;DHT22;6268;48.188;17.134;2023-01-28T13:15:24;2.00;99.90
12408;DHT22;6268;48.188;17.134;2023-01-28T13:17:54;2.00;99.90
12408;DHT22;6268;48.188;17.134;2023-01-28T13:20:46;2.00;99.90
12408;DHT22;6268;48.188;17.134;2023-01-28T13:23:24;2.00;99.90
12408;DHT22;6268;48.188;17.134;2023-01-28T13:25:55;2.00;99.90
12408;DHT22;6268;48.188;17.134;2023-01-28T13:28:27;2.00;99.90
12408;DHT22;6268;48.188;17.134;2023-01-28T13:31:02;2.00;99.90
12408;DHT22;6268;48.188;17.134;2023-01-28T13:33:35;2.10;99.90
12408;DHT22;6268;48.188;17.134;2023-01-28T13:36:21;2.00;99.90
12408;DHT22;6268;48.188;17.134;2023-01-28T13:39:01;2.10;99.90
12408;DHT22;6268;48.188;17.134;2023-01-28T13:41:41;2.10;99.90
12408;DHT22;6268;48.188;17.134;2023-01-28T13:44:26;2.00;99.90
12408;DHT22;6268;48.188;17.134;2023-01-28T13:46:58;2.00;99.90
12408;DHT22;6268;48.188;17.134;2023-01-28T13:49:40;2.00;99.90
12408;DHT22;6268;48.188;17.134;2023-01-28T13:52:16;2.00;99.90
12408;DHT22;6268;48.188;17.134;2023-01-28T13:54:54;2.00;99.90
12408;DHT22;6268;48.188;17.134;2023-01-28T13:57:43;2.00;99.90
12408;DHT22;6268;48.188;17.134;2023-01-28T14:00:44;2.00;99.90
12408;DHT22;6268;48.188;17.134;2023-01-28T14:03:54;2.00;99.90
12408;DHT22;6268;48.188;17.134;2023-01-28T14:07:03;2.00;99.90
12408;DHT22;6268;48.188;17.134;2023-01-28T14:16:29;2.10;99.90
12408;DHT22;6268;48.188;17.134;2023-01-28T14:19:04;2.10;99.90
12408;DHT22;6268;48.188;17.134;2023-01-28T14:21:40;2.00;99.90
12408;DHT22;6268;48.188;17.134;2023-01-28T14:24:15;2.00;99.90
12408;DHT22;6268;48.188;17.134;2023-01-28T14:26:52;2.00;99.90
12408;DHT22;6268;48.188;17.134;2023-01-28T14:29:36;1.90;99.90
12408;DHT22;6268;48.188;17.134;2023-01-28T14:32:16;2.00;99.90
12408;DHT22;6268;48.188;17.134;2023-01-28T14:34:47;2.00;99.90
12408;DHT22;6268;48.188;17.134;2023-01-28T14:37:18;1.90;99.90
12408;DHT22;6268;48.188;17.134;2023-01-28T14:39:51;1.90;99.90
12408;DHT22;6268;48.188;17.134;2023-01-28T14:42:26;1.90;99.90
12408;DHT22;6268;48.188;17.134;2023-01-28T14:45:07;1.90;99.90
12408;DHT22;6268;48.188;17.134;2023-01-28T14:47:56;1.90;99.90
12408;DHT22;6268;48.188;17.134;2023-01-28T14:50:50;1.90;99.90
12408;DHT22;6268;48.188;17.134;2023-01-28T14:53:57;1.80;99.90
12408;DHT22;6268;48.188;17.134;2023-01-28T14:56:51;1.80;99.90
12408;DHT22;6268;48.188;17.134;2023-01-28T14:59:36;1.80;99.90
12408;DHT22;6268;48.188;17.134;2023-01-28T15:02:17;1.80;99.90
12408;DHT22;6268;48.188;17.134;2023-01-28T15:04:48;1.90;99.90
12408;DHT22;6268;48.188;17.134;2023-01-28T15:07:19;1.90;99.90
12408;DHT22;6268;48.188;17.134;2023-01-28T15:09:59;1.90;99.90
12408;DHT22;6268;48.188;17.134;2023-01-28T15:12:32;1.80;99.90
12408;DHT22;6268;48.188;17.134;2023-01-28T15:15:09;1.80;99.90
12408;DHT22;6268;48.188;17.134;2023-01-28T15:17:39;1.80;99.90
12408;DHT22;6268;48.188;17.134;2023-01-28T15:20:14;1.80;99.90
12408;DHT22;6268;48.188;17.134;2023-01-28T15:22:45;1.80;99.90
12408;DHT22;6268;48.188;17.134;2023-01-28T15:25:16;1.80;99.90
12408;DHT22;6268;48.188;17.134;2023-01-28T15:27:47;1.80;99.90
12408;DHT22;6268;48.188;17.134;2023-01-28T15:30:23;1.80;99.90
12408;DHT22;6268;48.188;17.134;2023-01-28T15:32:59;1.70;99.90
12408;DHT22;6268;48.188;17.134;2023-01-28T15:35:31;1.70;99.90
12408;DHT22;6268;48.188;17.134;2023-01-28T15:38:03;1.70;99.90
12408;DHT22;6268;48.188;17.134;2023-01-28T15:40:40;1.70;99.90
12408;DHT22;6268;48.188;17.134;2023-01-28T15:43:16;1.70;99.90
12408;DHT22;6268;48.188;17.134;2023-01-28T15:45:51;1.60;99.90
12408;DHT22;6268;48.188;17.134;2023-01-28T15:48:23;1.60;99.90
12408;DHT22;6268;48.188;17.134;2023-01-28T15:50:58;1.60;99.90
12408;DHT22;6268;48.188;17.134;2023-01-28T15:53:32;1.60;99.90
12408;DHT22;6268;48.188;17.134;2023-01-28T15:56:05;1.60;99.90
12408;DHT22;6268;48.188;17.134;2023-01-28T15:58:36;1.50;99.90
12408;DHT22;6268;48.188;17.134;2023-01-28T16:01:17;1.50;99.90
12408;DHT22;6268;48.188;17.134;2023-01-28T16:04:00;1.50;99.90
12408;DHT22;6268;48.188;17.134;2023-01-28T16:06:34;1.50;99.90
12408;DHT22;6268;48.188;17.134;2023-01-28T16:09:13;1.50;99.90
12408;DHT22;6268;48.188;17.134;2023-01-28T16:11:47;1.50;99.90
12408;DHT22;6268;48.188;17.134;2023-01-28T16:14:21;1.50;99.90
12408;DHT22;6268;48.188;17.134;2023-01-28T16:16:56;1.50;99.90
12408;DHT22;6268;48.188;17.134;2023-01-28T16:19:31;1.50;99.90
12408;DHT22;6268;48.188;17.134;2023-01-28T16:22:04;1.50;99.90
12408;DHT22;6268;48.188;17.134;2023-01-28T16:24:35;1.50;99.90
12408;DHT22;6268;48.188;17.134;2023-01-28T16:27:05;1.50;99.90
12408;DHT22;6268;48.188;17.134;2023-01-28T16:29:47;1.50;99.90
12408;DHT22;6268;48.188;17.134;2023-01-28T16:32:34;1.50;99.90
12408;DHT22;6268;48.188;17.134;2023-01-28T16:35:08;1.40;99.90
12408;DHT22;6268;48.188;17.134;2023-01-28T16:37:41;1.40;99.90
12408;DHT22;6268;48.188;17.134;2023-01-28T16:40:12;1.40;99.90
12408;DHT22;6268;48.188;17.134;2023-01-28T16:42:43;1.40;99.90
12408;DHT22;6268;48.188;17.134;2023-01-28T16:45:17;1.50;99.90